Terminal Aerodrome Forecast
Issued by NWS

Home | Current Version | Previous Version | Text Only | Print | Product List | Glossary On
Versions: 1 2 3 4 5 6 7 8 9 10 11 12 13 14 15 16 17 18 19 20 21 22 23 24 25 26 27 28 29 30 31 32 33 34 35 36 37 38
683
FTUS44 KMOB 290530
TAFBFM
TAF
KBFM 290530Z 2906/3006 34003KT P6SM BKN015 OVC030
     FM290900 VRB03KT P6SM VCTS SCT005 BKN015CB
     FM291200 VRB10G20KT 3SM TSRA SCT005 OVC015CB
      TEMPO 2913/2916 1SM TSRA=

USA.gov is the U.S. government's official web portal to all federal, state and local government web resources and services.